createdAt,value
2018-03-22T00:00:12.056Z,19.43
2018-03-22T00:02:40.324Z,21.00
2018-03-22T00:05:08.564Z,20.23
2018-03-22T00:07:36.038Z,20.37
2018-03-22T00:10:03.531Z,20.83
2018-03-22T00:12:31.021Z,20.88
2018-03-22T00:14:58.518Z,19.13
2018-03-22T00:17:25.991Z,20.00
2018-03-22T00:19:54.228Z,19.23
2018-03-22T00:22:33.676Z,21.27
2018-03-22T00:25:01.157Z,20.17
2018-03-22T00:27:29.387Z,19.57
2018-03-22T00:29:56.888Z,18.95
2018-03-22T00:32:25.134Z,20.40
2018-03-22T00:34:52.595Z,19.60
2018-03-22T00:37:20.066Z,19.57
2018-03-22T00:39:47.531Z,19.07
2018-03-22T00:42:15.797Z,19.03
2018-03-22T00:44:43.283Z,19.10
2018-03-22T00:47:10.759Z,18.48
2018-03-22T00:49:38.234Z,16.75
2018-03-22T00:52:05.734Z,16.00
2018-03-22T00:54:33.190Z,16.43
2018-03-22T00:57:01.413Z,15.63
2018-03-22T00:59:28.892Z,17.00
2018-03-22T01:01:56.348Z,14.50
2018-03-22T01:04:23.802Z,14.40
2018-03-22T01:06:51.296Z,14.43
2018-03-22T01:09:19.531Z,15.63
2018-03-22T01:11:47.027Z,16.03
2018-03-22T01:14:15.279Z,16.30
2018-03-22T01:16:42.756Z,15.90
2018-03-22T01:19:10.988Z,15.67
2018-03-22T01:21:38.470Z,14.80
2018-03-22T01:24:05.938Z,16.37
2018-03-22T01:26:34.166Z,17.07
2018-03-22T01:29:01.654Z,15.03
2018-03-22T01:31:29.116Z,16.77
2018-03-22T01:33:56.588Z,15.57
2018-03-22T01:36:24.856Z,15.63
2018-03-22T01:38:53.087Z,16.90
2018-03-22T01:41:20.543Z,15.77
2018-03-22T01:43:48.047Z,15.13
2018-03-22T01:46:16.274Z,14.80
2018-03-22T01:48:43.734Z,17.63
2018-03-22T01:51:11.221Z,16.37
2018-03-22T01:53:38.684Z,15.50
2018-03-22T01:56:06.188Z,15.97
2018-03-22T01:58:33.647Z,16.10
2018-03-22T02:01:01.114Z,16.03
2018-03-22T02:03:28.608Z,16.20
2018-03-22T02:05:56.068Z,14.40
2018-03-22T02:08:23.643Z,15.00
2018-03-22T02:10:51.950Z,16.33
2018-03-22T02:13:19.399Z,17.00
2018-03-22T02:15:46.867Z,17.27
2018-03-22T02:18:14.368Z,15.23
2018-03-22T02:20:41.841Z,15.30
2018-03-22T02:23:10.073Z,16.10
2018-03-22T02:25:37.554Z,13.80
2018-03-22T02:28:05.014Z,15.40
2018-03-22T02:30:32.483Z,15.77
2018-03-22T02:33:00.748Z,16.37
2018-03-22T02:35:28.214Z,13.90
2018-03-22T02:37:56.443Z,16.37
2018-03-22T02:40:23.916Z,16.60
2018-03-22T02:42:51.434Z,16.13
2018-03-22T02:45:18.871Z,16.00
2018-03-22T02:47:47.115Z,16.77
2018-03-22T02:50:14.601Z,17.60
2018-03-22T02:52:42.826Z,16.70
2018-03-22T02:55:10.301Z,16.03
2018-03-22T02:57:37.771Z,16.53
2018-03-22T03:00:06.018Z,17.13
2018-03-22T03:02:33.487Z,16.10
2018-03-22T03:05:00.967Z,17.10
2018-03-22T03:07:29.203Z,16.73
2018-03-22T03:09:56.679Z,18.03
2018-03-22T03:12:24.139Z,16.70
2018-03-22T03:14:51.624Z,17.30
2018-03-22T03:17:19.091Z,19.00
2018-03-22T03:19:46.563Z,18.33
2018-03-22T03:22:14.050Z,18.90
2018-03-22T03:24:41.519Z,18.10
2018-03-22T03:27:09.002Z,17.20
2018-03-22T03:29:36.483Z,16.90
2018-03-22T03:32:03.947Z,17.67
2018-03-22T03:34:31.439Z,18.03
2018-03-22T03:36:58.904Z,19.57
2018-03-22T03:39:26.398Z,18.73
2018-03-22T03:41:54.618Z,18.33
2018-03-22T03:44:22.087Z,18.00
2018-03-22T03:46:49.759Z,20.10
2018-03-22T03:49:17.228Z,20.77
2018-03-22T03:51:45.438Z,21.10
2018-03-22T03:54:12.942Z,20.83
2018-03-22T03:56:40.407Z,18.50
2018-03-22T03:59:07.876Z,21.27
2018-03-22T04:01:36.132Z,23.73
2018-03-22T04:04:03.586Z,20.77
2018-03-22T04:06:31.059Z,20.00
2018-03-22T04:08:59.576Z,22.60
2018-03-22T04:11:27.045Z,20.57
2018-03-22T04:13:54.511Z,20.43
2018-03-22T04:16:21.988Z,21.80
2018-03-22T04:18:49.455Z,21.60
2018-03-22T04:21:16.927Z,18.70
2018-03-22T04:23:45.171Z,20.70
2018-03-22T04:26:12.651Z,20.30
2018-03-22T04:28:40.122Z,20.53
2018-03-22T04:31:08.471Z,21.17
2018-03-22T04:33:35.934Z,21.33
2018-03-22T04:36:03.418Z,22.73
2018-03-22T04:38:30.893Z,22.27
2018-03-22T04:40:58.357Z,19.53
2018-03-22T04:43:25.847Z,20.80
2018-03-22T04:45:53.332Z,21.63
2018-03-22T04:48:21.575Z,21.50
2018-03-22T04:50:49.064Z,21.20
2018-03-22T04:53:17.298Z,21.90
2018-03-22T04:55:44.760Z,19.30
2018-03-22T04:58:12.267Z,21.37
2018-03-22T05:00:39.738Z,22.00
2018-03-22T05:03:07.215Z,19.60
2018-03-22T05:05:34.712Z,20.80
2018-03-22T05:08:02.967Z,21.67
2018-03-22T05:10:30.424Z,21.10
2018-03-22T05:12:57.907Z,21.47
2018-03-22T05:15:26.150Z,20.87
2018-03-22T05:17:53.625Z,20.77
2018-03-22T05:20:21.118Z,24.03
2018-03-22T05:22:48.576Z,23.20
2018-03-22T05:25:16.043Z,22.00
2018-03-22T05:27:43.663Z,24.07
2018-03-22T05:30:11.894Z,18.80
2018-03-22T05:32:39.366Z,24.23
2018-03-22T05:35:07.032Z,25.83
2018-03-22T05:37:36.011Z,23.17
2018-03-22T05:40:03.476Z,21.57
2018-03-22T05:42:30.978Z,25.60
2018-03-22T05:44:59.206Z,26.30
2018-03-22T05:47:26.675Z,20.53
2018-03-22T05:49:54.247Z,24.67
2018-03-22T05:52:22.627Z,27.43
2018-03-22T05:54:50.863Z,23.10
2018-03-22T05:57:18.353Z,21.33
2018-03-22T05:59:46.595Z,26.23
2018-03-22T06:02:14.057Z,26.97
2018-03-22T06:04:41.543Z,27.47
2018-03-22T06:07:09.798Z,29.42
2018-03-22T06:09:37.263Z,28.47
2018-03-22T06:12:04.757Z,27.80
2018-03-22T06:14:32.218Z,27.30
2018-03-22T06:16:59.718Z,27.55
2018-03-22T06:19:27.183Z,27.13
2018-03-22T06:21:56.158Z,31.37
2018-03-22T06:24:23.645Z,29.25
2018-03-22T06:26:51.922Z,28.65
2018-03-22T06:29:19.394Z,29.17
2018-03-22T06:31:47.651Z,30.58
2018-03-22T06:34:15.899Z,30.70
2018-03-22T06:36:43.395Z,34.67
2018-03-22T06:39:11.638Z,32.20
2018-03-22T06:41:39.110Z,32.73
2018-03-22T06:44:06.616Z,33.23
2018-03-22T06:46:34.091Z,29.12
2018-03-22T06:49:01.571Z,34.28
2018-03-22T06:51:29.263Z,28.73
2018-03-22T06:53:57.497Z,36.85
2018-03-22T06:56:24.963Z,34.88
2018-03-22T06:58:53.232Z,34.37
2018-03-22T07:01:20.707Z,30.37
2018-03-22T07:03:48.179Z,36.73
2018-03-22T07:06:16.437Z,38.22
2018-03-22T07:08:44.687Z,38.75
2018-03-22T07:11:12.224Z,33.97
2018-03-22T07:13:39.718Z,43.25
2018-03-22T07:16:07.188Z,42.78
2018-03-22T07:18:34.678Z,39.97
2018-03-22T07:21:02.186Z,37.27
2018-03-22T07:23:29.757Z,38.42
2018-03-22T07:25:57.249Z,29.00
2018-03-22T07:28:25.491Z,34.97
2018-03-22T07:30:52.954Z,33.47
2018-03-22T07:33:21.226Z,31.45
2018-03-22T07:35:48.703Z,29.87
2018-03-22T07:38:16.170Z,30.43
2018-03-22T07:40:43.698Z,33.00
2018-03-22T07:43:17.514Z,34.05
2018-03-22T07:45:45.770Z,33.73
2018-03-22T07:48:14.006Z,30.10
2018-03-22T07:50:41.474Z,34.72
2018-03-22T07:53:08.966Z,27.20
2018-03-22T07:55:37.207Z,32.38
2018-03-22T07:58:04.714Z,27.00
2018-03-22T08:00:32.949Z,33.20
2018-03-22T08:03:00.433Z,31.12
2018-03-22T08:05:27.927Z,32.65
2018-03-22T08:07:55.408Z,33.70
2018-03-22T08:10:22.887Z,33.50
2018-03-22T08:12:50.378Z,34.70
2018-03-22T08:15:17.852Z,34.23
2018-03-22T08:17:45.322Z,33.17
2018-03-22T08:20:12.818Z,34.55
2018-03-22T08:22:41.070Z,32.40
2018-03-22T08:25:08.529Z,36.80
2018-03-22T08:27:36.018Z,37.00
2018-03-22T08:30:04.276Z,34.57
2018-03-22T08:32:31.762Z,39.00
2018-03-22T08:35:00.027Z,36.43
2018-03-22T08:37:27.490Z,33.63
2018-03-22T08:39:55.725Z,31.63
2018-03-22T08:42:23.207Z,33.50
2018-03-22T08:44:50.675Z,33.50
2018-03-22T08:47:18.927Z,35.77
2018-03-22T08:49:46.404Z,33.10
2018-03-22T08:52:14.639Z,35.93
2018-03-22T08:54:42.130Z,35.90
2018-03-22T08:57:11.107Z,32.90
2018-03-22T08:59:38.577Z,36.67
2018-03-22T09:02:06.062Z,34.40
2018-03-22T09:04:33.514Z,34.30
2018-03-22T09:07:00.979Z,36.17
2018-03-22T09:09:28.472Z,36.57
2018-03-22T09:11:55.945Z,35.43
2018-03-22T09:14:23.459Z,36.07
2018-03-22T09:16:51.659Z,37.20
2018-03-22T09:19:19.118Z,36.73
2018-03-22T09:21:46.616Z,38.60
2018-03-22T09:24:14.857Z,39.80
2018-03-22T09:26:48.095Z,37.07
2018-03-22T09:29:15.518Z,38.70
2018-03-22T09:31:42.986Z,37.27
2018-03-22T09:34:10.471Z,40.23
2018-03-22T09:36:37.936Z,39.37
2018-03-22T09:39:05.395Z,36.17
2018-03-22T09:41:32.895Z,36.10
2018-03-22T09:44:00.351Z,34.87
2018-03-22T09:46:27.822Z,34.47
2018-03-22T09:48:55.328Z,33.53
2018-03-22T09:51:22.787Z,30.10
2018-03-22T09:53:50.249Z,30.17
2018-03-22T09:56:17.738Z,28.53
2018-03-22T09:58:45.208Z,28.07
2018-03-22T10:01:12.667Z,28.70
2018-03-22T10:03:40.920Z,29.83
2018-03-22T10:06:08.404Z,27.60
2018-03-22T10:08:36.674Z,25.20
2018-03-22T10:11:04.133Z,26.27
2018-03-22T10:13:32.360Z,24.67
2018-03-22T10:15:59.846Z,26.30
2018-03-22T10:18:27.326Z,28.27
2018-03-22T10:20:55.547Z,24.73
2018-03-22T10:23:23.097Z,25.10
2018-03-22T10:25:50.581Z,24.07
2018-03-22T10:28:18.066Z,23.73
2018-03-22T10:30:45.547Z,24.70
2018-03-22T10:33:13.008Z,24.93
2018-03-22T10:35:40.486Z,23.77
2018-03-22T10:38:07.978Z,23.67
2018-03-22T10:40:35.455Z,24.73
2018-03-22T10:43:03.688Z,25.00
2018-03-22T10:45:31.171Z,25.10
2018-03-22T10:47:58.639Z,24.70
2018-03-22T10:50:26.898Z,23.20
2018-03-22T10:52:54.363Z,23.63
2018-03-22T10:55:21.923Z,23.33
2018-03-22T10:57:50.176Z,22.37
2018-03-22T11:03:27.198Z,23.97
2018-03-22T11:05:56.317Z,24.67
2018-03-22T11:08:26.378Z,25.13
2018-03-22T11:10:53.866Z,24.50
2018-03-22T11:13:21.334Z,22.33
2018-03-22T11:15:49.563Z,23.07
2018-03-22T11:18:17.043Z,24.33
2018-03-22T11:20:44.523Z,23.23
2018-03-22T11:23:12.752Z,23.30
2018-03-22T11:25:40.358Z,23.83
2018-03-22T11:28:08.587Z,22.77
2018-03-22T11:30:36.054Z,25.80
2018-03-22T11:33:03.551Z,24.87
2018-03-22T11:35:31.782Z,23.20
2018-03-22T11:37:59.243Z,24.00
2018-03-22T11:40:26.774Z,24.47
2018-03-22T11:42:54.230Z,24.00
2018-03-22T11:45:21.696Z,23.70
2018-03-22T11:47:49.188Z,24.30
2018-03-22T11:50:16.666Z,24.87
2018-03-22T11:52:44.911Z,25.80
2018-03-22T11:55:12.416Z,25.37
2018-03-22T11:57:39.888Z,25.93
2018-03-22T12:00:07.351Z,24.57
2018-03-22T12:02:34.845Z,25.20
2018-03-22T12:05:02.324Z,23.93
2018-03-22T12:07:30.562Z,24.30
2018-03-22T12:09:58.040Z,26.13
2018-03-22T12:12:25.556Z,24.63
2018-03-22T12:14:52.990Z,23.37
2018-03-22T12:17:20.691Z,24.40
2018-03-22T12:19:48.142Z,25.20
2018-03-22T12:22:15.611Z,23.97
2018-03-22T12:24:43.090Z,24.00
2018-03-22T12:27:11.318Z,22.90
2018-03-22T12:29:38.786Z,21.90
2018-03-22T12:32:06.475Z,22.30
2018-03-22T12:34:34.706Z,21.93
2018-03-22T12:37:02.179Z,22.13
2018-03-22T12:39:29.670Z,21.80
2018-03-22T12:41:57.895Z,20.77
2018-03-22T12:44:25.367Z,20.97
2018-03-22T12:46:52.885Z,22.00
2018-03-22T12:49:20.344Z,20.07
2018-03-22T12:51:47.819Z,19.33
2018-03-22T12:54:15.379Z,21.60
2018-03-22T12:56:42.863Z,20.37
2018-03-22T12:59:11.096Z,20.33
2018-03-22T13:01:38.591Z,19.77
2018-03-22T13:04:06.055Z,20.00
2018-03-22T13:06:33.571Z,19.17
2018-03-22T13:09:01.047Z,19.70
2018-03-22T13:11:28.510Z,20.80
2018-03-22T13:13:56.012Z,20.40
2018-03-22T13:16:24.238Z,18.60
2018-03-22T13:18:51.708Z,16.20
2018-03-22T13:21:19.187Z,14.40
2018-03-22T13:23:47.440Z,15.30
2018-03-22T13:26:14.920Z,15.20
2018-03-22T13:28:43.159Z,15.70
2018-03-22T13:31:10.905Z,15.83
2018-03-22T13:33:38.382Z,16.37
2018-03-22T13:36:05.848Z,17.30
2018-03-22T13:38:33.313Z,16.90
2018-03-22T13:41:00.803Z,18.50
2018-03-22T13:43:29.039Z,18.00
2018-03-22T13:45:56.496Z,18.70
2018-03-22T13:48:23.988Z,17.80
2018-03-22T13:50:52.222Z,20.03
2018-03-22T13:53:19.707Z,17.87
2018-03-22T13:55:47.950Z,19.73
2018-03-22T13:58:15.406Z,19.80
2018-03-22T14:00:42.894Z,18.70
2018-03-22T14:03:11.139Z,19.00
2018-03-22T14:05:38.610Z,19.63
2018-03-22T14:08:06.094Z,20.40
2018-03-22T14:10:35.558Z,19.17
2018-03-22T14:13:03.033Z,19.60
2018-03-22T14:15:30.519Z,19.47
2018-03-22T14:17:57.984Z,19.67
2018-03-22T14:20:25.554Z,20.97
2018-03-22T14:22:53.039Z,21.57
2018-03-22T14:25:20.501Z,22.80
2018-03-22T14:27:47.961Z,20.63
2018-03-22T14:30:15.477Z,23.40
2018-03-22T14:32:42.927Z,22.00
2018-03-22T14:35:10.418Z,22.30
2018-03-22T14:37:37.948Z,20.90
2018-03-22T14:40:05.404Z,21.63
2018-03-22T14:42:32.895Z,20.90
2018-03-22T14:45:00.382Z,21.20
2018-03-22T14:47:27.843Z,20.47
2018-03-22T14:49:56.100Z,21.27
2018-03-22T14:52:23.597Z,21.83
2018-03-22T14:54:51.905Z,20.80
2018-03-22T14:57:19.405Z,21.30
2018-03-22T14:59:47.638Z,21.33
2018-03-22T15:02:15.131Z,20.57
2018-03-22T15:04:42.618Z,19.77
2018-03-22T15:07:10.083Z,20.47
2018-03-22T15:09:37.591Z,20.80
2018-03-22T15:12:05.054Z,19.53
2018-03-22T15:14:33.524Z,20.20
2018-03-22T15:17:01.759Z,20.37
2018-03-22T15:19:29.240Z,18.30
2018-03-22T15:21:56.722Z,18.00
2018-03-22T15:24:24.278Z,18.00
2018-03-22T15:26:51.757Z,16.43
2018-03-22T15:29:19.995Z,16.80
2018-03-22T15:31:47.570Z,18.13
2018-03-22T15:34:15.038Z,19.20
2018-03-22T15:36:43.304Z,17.67
2018-03-22T15:39:11.535Z,17.93
2018-03-22T15:41:38.990Z,17.67
2018-03-22T15:44:06.472Z,19.07
2018-03-22T15:46:33.993Z,17.30
2018-03-22T15:49:01.459Z,16.97
2018-03-22T15:51:28.944Z,15.07
2018-03-22T15:53:56.406Z,16.50
2018-03-22T15:56:23.878Z,17.27
2018-03-22T15:58:51.479Z,16.20
2018-03-22T16:01:18.933Z,15.27
2018-03-22T16:03:46.390Z,15.37
2018-03-22T16:06:13.871Z,14.90
2018-03-22T16:08:41.330Z,14.70
2018-03-22T16:11:08.805Z,14.50
2018-03-22T16:13:36.274Z,15.70
2018-03-22T16:16:03.740Z,14.10
2018-03-22T16:18:32.043Z,14.87
2018-03-22T16:20:59.477Z,14.40
2018-03-22T16:23:27.725Z,14.90
2018-03-22T16:25:55.191Z,14.77
2018-03-22T16:28:23.443Z,14.37
2018-03-22T16:30:50.904Z,13.93
2018-03-22T16:33:18.412Z,13.33
2018-03-22T16:35:45.866Z,14.77
2018-03-22T16:38:13.327Z,13.90
2018-03-22T16:40:40.814Z,13.53
2018-03-22T16:43:08.279Z,14.50
2018-03-22T16:45:35.756Z,13.80
2018-03-22T16:48:03.237Z,14.30
2018-03-22T16:50:31.460Z,15.20
2018-03-22T16:53:00.021Z,15.87
2018-03-22T16:55:27.478Z,15.00
2018-03-22T16:57:54.954Z,14.30
2018-03-22T17:00:22.426Z,14.70
2018-03-22T17:02:49.889Z,15.13
2018-03-22T17:05:17.387Z,15.43
2018-03-22T17:07:45.623Z,17.50
2018-03-22T17:10:13.102Z,15.07
2018-03-22T17:12:41.366Z,16.27
2018-03-22T17:15:08.823Z,14.30
2018-03-22T17:17:36.286Z,15.07
2018-03-22T17:20:04.552Z,15.50
2018-03-22T17:22:32.016Z,15.60
2018-03-22T17:25:00.239Z,14.93
2018-03-22T17:27:27.940Z,16.73
2018-03-22T17:29:56.940Z,14.10
2018-03-22T17:32:24.390Z,15.90
2018-03-22T17:34:51.876Z,15.03
2018-03-22T17:37:20.111Z,15.00
2018-03-22T17:39:47.571Z,14.83
2018-03-22T17:42:15.059Z,15.90
2018-03-22T17:44:42.522Z,14.87
2018-03-22T17:47:10.012Z,14.80
2018-03-22T17:49:37.480Z,15.27
2018-03-22T17:52:05.315Z,15.47
2018-03-22T17:54:32.878Z,13.30
2018-03-22T17:57:00.369Z,13.67
2018-03-22T17:59:27.860Z,14.97
2018-03-22T18:01:56.110Z,13.77
2018-03-22T18:04:23.584Z,14.70
2018-03-22T18:06:51.832Z,15.33
2018-03-22T18:09:19.325Z,15.00
2018-03-22T18:11:47.559Z,18.10
2018-03-22T18:14:15.039Z,16.30
2018-03-22T18:16:43.273Z,16.40
2018-03-22T18:19:10.730Z,17.70
2018-03-22T18:21:38.227Z,15.70
2018-03-22T18:24:06.714Z,17.40
2018-03-22T18:26:34.188Z,17.33
2018-03-22T18:29:02.426Z,16.70
2018-03-22T18:31:29.941Z,18.67
2018-03-22T18:33:57.417Z,19.77
2018-03-22T18:36:24.958Z,20.10
2018-03-22T18:38:52.852Z,23.57
2018-03-22T18:41:20.315Z,22.70
2018-03-22T18:43:49.307Z,23.67
2018-03-22T18:46:16.778Z,24.57
2018-03-22T18:48:44.246Z,24.43
2018-03-22T18:51:12.529Z,26.13
2018-03-22T18:53:40.815Z,25.27
2018-03-22T18:56:08.431Z,29.97
2018-03-22T18:58:35.904Z,28.07
2018-03-22T19:01:03.401Z,28.60
2018-03-22T19:03:30.853Z,31.30
2018-03-22T19:05:58.444Z,31.87
2018-03-22T19:08:25.930Z,30.83
2018-03-22T19:10:53.412Z,28.90
2018-03-22T19:13:21.657Z,34.27
2018-03-22T19:15:49.155Z,32.23
2018-03-22T19:18:16.647Z,30.97
2018-03-22T19:20:44.115Z,30.90
2018-03-22T19:23:11.608Z,32.33
2018-03-22T19:25:39.969Z,31.83
2018-03-22T19:28:07.396Z,31.53
2018-03-22T19:30:34.972Z,31.60
2018-03-22T19:33:02.443Z,30.07
2018-03-22T19:35:29.914Z,30.00
2018-03-22T19:37:58.183Z,29.17
2018-03-22T19:40:25.655Z,28.80
2018-03-22T19:42:53.891Z,26.57
2018-03-22T19:45:21.371Z,26.60
2018-03-22T19:47:49.600Z,26.13
2018-03-22T19:50:17.145Z,24.47
2018-03-22T19:52:44.656Z,23.23
2018-03-22T19:55:12.896Z,21.90
2018-03-22T19:57:40.354Z,18.20
2018-03-22T20:00:07.852Z,17.43
2018-03-22T20:02:36.084Z,13.97
2018-03-22T20:05:03.624Z,13.70
2018-03-22T20:07:31.111Z,13.70
2018-03-22T20:09:58.552Z,11.77
2018-03-22T20:12:26.063Z,12.23
2018-03-22T20:14:54.333Z,13.33
2018-03-22T20:17:22.575Z,13.90
2018-03-22T20:19:50.275Z,14.40
2018-03-22T20:22:18.534Z,14.20
2018-03-22T20:24:46.772Z,14.13
2018-03-22T20:27:14.253Z,13.07
2018-03-22T20:29:41.723Z,12.70
2018-03-22T20:32:09.204Z,12.47
2018-03-22T20:34:36.678Z,13.50
2018-03-22T20:37:04.166Z,12.63
2018-03-22T20:39:31.666Z,12.70
2018-03-22T20:41:59.882Z,14.73
2018-03-22T20:44:28.103Z,13.83
2018-03-22T20:46:55.546Z,15.80
2018-03-22T20:49:27.934Z,14.50
2018-03-22T20:51:56.216Z,18.30
2018-03-22T20:54:25.835Z,19.77
2018-03-22T20:56:53.603Z,22.67
2018-03-22T20:59:22.068Z,20.77
2018-03-22T21:01:50.296Z,23.60
2018-03-22T21:04:17.775Z,27.87
2018-03-22T21:06:46.015Z,27.23
2018-03-22T21:09:13.495Z,28.07
2018-03-22T21:11:41.791Z,30.93
2018-03-22T21:14:10.117Z,31.47
2018-03-22T21:16:38.288Z,31.83
2018-03-22T21:19:06.568Z,32.50
2018-03-22T21:21:35.458Z,33.20
2018-03-22T21:24:03.460Z,33.73
2018-03-22T21:26:31.036Z,32.83
2018-03-22T21:28:59.279Z,34.47
2018-03-22T21:31:26.749Z,35.20
2018-03-22T21:33:55.990Z,34.27
2018-03-22T21:36:23.464Z,33.87
2018-03-22T21:38:50.931Z,33.50
2018-03-22T21:41:18.672Z,32.03
2018-03-22T21:43:58.024Z,30.30
2018-03-22T21:46:25.500Z,31.30
2018-03-22T21:48:52.967Z,30.90
2018-03-22T21:51:20.475Z,30.67
2018-03-22T21:53:47.930Z,30.70
2018-03-22T21:56:17.102Z,28.60
2018-03-22T21:58:46.805Z,29.17
2018-03-22T22:01:15.383Z,29.47
2018-03-22T22:03:43.532Z,29.00
2018-03-22T22:06:11.024Z,29.27
2018-03-22T22:08:39.271Z,29.47
2018-03-22T22:11:06.744Z,30.80
2018-03-22T22:13:35.047Z,29.00
2018-03-22T22:16:03.283Z,31.23
2018-03-22T22:18:32.623Z,31.07
2018-03-22T22:21:00.407Z,29.23
2018-03-22T22:23:27.889Z,27.73
2018-03-22T22:25:56.520Z,30.00
2018-03-22T22:28:24.826Z,30.40
2018-03-22T22:30:52.282Z,30.40
2018-03-22T22:33:19.762Z,28.40
2018-03-22T22:35:48.034Z,29.67
2018-03-22T22:38:15.502Z,31.53
2018-03-22T22:40:44.181Z,32.30
2018-03-22T22:43:12.611Z,32.70
2018-03-22T22:45:41.415Z,34.23
2018-03-22T22:48:08.885Z,35.63
2018-03-22T22:50:41.176Z,34.93
2018-03-22T22:53:08.638Z,34.63
2018-03-22T22:55:38.862Z,33.80
2018-03-22T22:58:07.953Z,36.50
2018-03-22T23:00:36.341Z,37.00
2018-03-22T23:03:04.013Z,34.77
2018-03-22T23:05:31.478Z,37.43
2018-03-22T23:07:59.720Z,36.30
2018-03-22T23:10:27.234Z,39.27
2018-03-22T23:12:54.695Z,38.93
2018-03-22T23:15:22.202Z,40.87
2018-03-22T23:17:49.681Z,39.03
2018-03-22T23:20:17.908Z,39.67
2018-03-22T23:22:45.454Z,41.23
2018-03-22T23:25:12.908Z,39.87
2018-03-22T23:27:40.378Z,42.17
2018-03-22T23:30:07.866Z,41.03
2018-03-22T23:32:35.334Z,44.40
2018-03-22T23:35:03.652Z,43.53
2018-03-22T23:37:31.136Z,46.30
2018-03-22T23:39:58.612Z,46.07
2018-03-22T23:42:26.084Z,42.50
2018-03-22T23:44:54.340Z,45.97
2018-03-22T23:47:21.811Z,44.60
2018-03-22T23:49:50.049Z,44.23
2018-03-22T23:52:17.538Z,46.17
2018-03-22T23:54:45.015Z,44.27
2018-03-22T23:57:13.240Z,46.03
2018-03-22T23:59:40.729Z,46.67
